Time;durP1;ratioP1;P1;durP2;ratioP2;P2;SDS_P1;SDS_P2;PMS_P1;PMS_P2;Temp;Humidity;BMP_temperature;BMP_pressure;BME280_temperature;BME280_humidity;BME280_pressure;Samples;Min_cycle;Max_cycle;Signal;HPM_P1;HPM_P2
2023/03/10 00:01:22;;;;;;;7.77;2.10;;;;;;;;;;5054681;28;20226;-83
2023/03/10 00:03:49;;;;;;;2.70;1.70;;;;;;;;;;5034456;28;20241;-85
2023/03/10 00:06:19;;;;;;;4.23;1.80;;;;;;;;;;5036136;28;20210;-82
2023/03/10 00:08:46;;;;;;;2.83;1.50;;;;;;;;;;5051059;28;20234;-85
2023/03/10 00:11:14;;;;;;;1.40;1.30;;;;;;;;;;5053869;28;20709;-84
2023/03/10 00:13:41;;;;;;;4.80;1.80;;;;;;;;;;5053544;28;20242;-85
2023/03/10 00:16:08;;;;;;;1.33;1.23;;;;;;;;;;5053694;28;20717;-85
2023/03/10 00:18:35;;;;;;;2.10;1.70;;;;;;;;;;5052969;28;20234;-85
2023/03/10 00:21:03;;;;;;;5.10;1.63;;;;;;;;;;5053106;28;20230;-86
2023/03/10 00:23:32;;;;;;;2.17;1.37;;;;;;;;;;5053003;28;20233;-84
2023/03/10 00:26:00;;;;;;;2.20;1.53;;;;;;;;;;5053874;28;20233;-85
2023/03/10 00:28:27;;;;;;;1.83;1.40;;;;;;;;;;5052680;28;20234;-84
2023/03/10 00:30:58;;;;;;;1.43;1.33;;;;;;;;;;5053518;28;20226;-85
2023/03/10 00:33:25;;;;;;;1.47;1.27;;;;;;;;;;5052544;28;20238;-85
2023/03/10 00:36:01;;;;;;;1.63;1.53;;;;;;;;;;5053222;28;20194;-85
2023/03/10 00:38:28;;;;;;;1.63;1.40;;;;;;;;;;5052497;28;20237;-85
2023/03/10 00:40:59;;;;;;;1.30;1.20;;;;;;;;;;5052791;28;20222;-85
2023/03/10 00:43:27;;;;;;;1.53;1.43;;;;;;;;;;5053295;28;20233;-83
2023/03/10 00:45:54;;;;;;;1.40;1.20;;;;;;;;;;5053985;28;20213;-84
2023/03/10 00:48:21;;;;;;;2.03;1.80;;;;;;;;;;5052614;28;20588;-84
2023/03/10 00:50:48;;;;;;;1.43;1.33;;;;;;;;;;5052914;28;20221;-84
2023/03/10 00:53:15;;;;;;;3.50;1.53;;;;;;;;;;5052437;28;20234;-85
2023/03/10 00:55:42;;;;;;;1.47;1.37;;;;;;;;;;5052857;28;20202;-84
2023/03/10 00:58:11;;;;;;;3.00;1.50;;;;;;;;;;5052346;28;20234;-84
2023/03/10 01:00:38;;;;;;;2.17;1.63;;;;;;;;;;5053071;28;20225;-85
2023/03/10 01:03:05;;;;;;;1.70;1.20;;;;;;;;;;5052023;28;20230;-84
2023/03/10 01:05:32;;;;;;;1.93;1.50;;;;;;;;;;5052699;28;20214;-85
2023/03/10 01:07:59;;;;;;;2.23;1.27;;;;;;;;;;5052295;28;20244;-84
2023/03/10 01:10:26;;;;;;;1.43;1.40;;;;;;;;;;5052963;28;20626;-84
2023/03/10 01:12:53;;;;;;;1.37;1.27;;;;;;;;;;5052565;28;20225;-84
2023/03/10 01:15:22;;;;;;;1.73;1.03;;;;;;;;;;5052971;28;20209;-84
2023/03/10 01:17:49;;;;;;;1.10;1.10;;;;;;;;;;5052111;28;20287;-84
2023/03/10 01:20:17;;;;;;;0.93;0.93;;;;;;;;;;5052755;28;20237;-85
2023/03/10 01:22:45;;;;;;;2.10;1.27;;;;;;;;;;5052356;28;20238;-84
2023/03/10 01:25:14;;;;;;;1.33;1.17;;;;;;;;;;5052787;28;20202;-84
2023/03/10 01:27:42;;;;;;;1.73;1.20;;;;;;;;;;5052874;28;20226;-83
2023/03/10 01:30:09;;;;;;;1.47;1.13;;;;;;;;;;5053017;28;20230;-85
2023/03/10 01:32:42;;;;;;;3.20;1.70;;;;;;;;;;5052038;28;20230;-85
2023/03/10 01:35:10;;;;;;;3.63;1.40;;;;;;;;;;5052617;28;20209;-84
2023/03/10 01:37:37;;;;;;;1.53;1.43;;;;;;;;;;5052227;28;20230;-85
2023/03/10 01:40:04;;;;;;;1.33;1.23;;;;;;;;;;5053145;28;20238;-84
2023/03/10 01:42:32;;;;;;;2.67;1.40;;;;;;;;;;5052779;28;20260;-84
2023/03/10 01:45:06;;;;;;;1.50;1.40;;;;;;;;;;5053101;28;20206;-84
2023/03/10 01:47:34;;;;;;;1.43;1.30;;;;;;;;;;5052499;28;20237;-85
2023/03/10 01:50:03;;;;;;;1.40;1.30;;;;;;;;;;5052589;28;20230;-84
2023/03/10 01:52:32;;;;;;;1.33;1.23;;;;;;;;;;5052086;28;20226;-84
2023/03/10 01:55:01;;;;;;;1.10;1.10;;;;;;;;;;5052465;28;20613;-85
2023/03/10 01:57:30;;;;;;;1.60;1.50;;;;;;;;;;5050751;28;20225;-84
2023/03/10 01:59:58;;;;;;;1.67;1.50;;;;;;;;;;5055845;28;20222;-85
2023/03/10 02:02:26;;;;;;;1.40;1.30;;;;;;;;;;5055494;28;20245;-85
2023/03/10 02:04:54;;;;;;;1.40;1.30;;;;;;;;;;5055083;28;20293;-83
2023/03/10 02:07:25;;;;;;;1.63;1.50;;;;;;;;;;5055216;28;20209;-84
2023/03/10 02:09:53;;;;;;;1.40;1.30;;;;;;;;;;5056435;28;20271;-84
2023/03/10 02:12:21;;;;;;;2.80;1.80;;;;;;;;;;5055015;28;20206;-84
2023/03/10 02:14:49;;;;;;;1.10;1.10;;;;;;;;;;5056312;28;20198;-84
2023/03/10 02:17:18;;;;;;;1.60;1.50;;;;;;;;;;5055441;28;20728;-86
2023/03/10 02:19:52;;;;;;;0.97;0.97;;;;;;;;;;5055886;28;20237;-85
2023/03/10 02:22:19;;;;;;;1.40;1.30;;;;;;;;;;5035086;28;20211;-85
2023/03/10 02:24:51;;;;;;;1.20;1.20;;;;;;;;;;5040803;28;20201;-85
2023/03/10 02:27:21;;;;;;;1.10;1.10;;;;;;;;;;5055135;28;20209;-85
2023/03/10 02:29:51;;;;;;;1.30;1.30;;;;;;;;;;5055916;28;20226;-84
2023/03/10 02:32:19;;;;;;;1.87;1.40;;;;;;;;;;5055237;28;20277;-84
2023/03/10 02:34:46;;;;;;;3.03;1.57;;;;;;;;;;5055927;28;20205;-85
2023/03/10 02:37:20;;;;;;;1.43;1.30;;;;;;;;;;5054910;28;20209;-84
2023/03/10 02:39:47;;;;;;;1.53;1.30;;;;;;;;;;5055641;28;20225;-83
2023/03/10 02:42:15;;;;;;;1.43;1.33;;;;;;;;;;5054774;28;20225;-85
2023/03/10 02:44:43;;;;;;;1.40;1.33;;;;;;;;;;5055425;28;20199;-84
2023/03/10 02:47:11;;;;;;;1.33;1.23;;;;;;;;;;5054837;28;20202;-84
2023/03/10 02:49:38;;;;;;;1.53;1.17;;;;;;;;;;5055320;28;20218;-85
2023/03/10 02:52:08;;;;;;;1.40;1.30;;;;;;;;;;5054807;28;20205;-84
2023/03/10 02:54:35;;;;;;;2.10;1.50;;;;;;;;;;5055498;28;20221;-84
2023/03/10 02:57:02;;;;;;;1.40;1.40;;;;;;;;;;5055020;28;20201;-84
2023/03/10 02:59:29;;;;;;;1.13;1.10;;;;;;;;;;5054806;28;20234;-84
2023/03/10 03:01:57;;;;;;;1.67;1.57;;;;;;;;;;5054668;28;20225;-84
2023/03/10 03:04:24;;;;;;;1.10;1.10;;;;;;;;;;5054444;28;20234;-85
2023/03/10 03:06:51;;;;;;;1.07;1.00;;;;;;;;;;5054867;28;20209;-85
2023/03/10 03:09:19;;;;;;;1.73;1.50;;;;;;;;;;5054382;28;20694;-84
2023/03/10 03:11:46;;;;;;;1.10;1.10;;;;;;;;;;5054746;28;20911;-84
2023/03/10 03:14:13;;;;;;;2.50;1.57;;;;;;;;;;5054498;28;20313;-84
2023/03/10 03:16:40;;;;;;;1.70;1.40;;;;;;;;;;5055019;28;20206;-85
2023/03/10 03:19:08;;;;;;;1.20;1.20;;;;;;;;;;5054009;28;20226;-85
2023/03/10 03:21:35;;;;;;;1.30;1.20;;;;;;;;;;5054673;28;20206;-84
2023/03/10 03:24:03;;;;;;;2.17;1.50;;;;;;;;;;5054146;28;20233;-86
2023/03/10 03:26:31;;;;;;;1.93;1.53;;;;;;;;;;5054585;28;20203;-85
2023/03/10 03:28:58;;;;;;;1.27;1.27;;;;;;;;;;5054099;28;20237;-85
2023/03/10 03:31:25;;;;;;;2.00;1.80;;;;;;;;;;5054522;28;20230;-84
2023/03/10 03:33:52;;;;;;;1.60;1.50;;;;;;;;;;5053638;28;20706;-84
2023/03/10 03:36:21;;;;;;;1.50;1.40;;;;;;;;;;5054495;28;20860;-84
2023/03/10 03:38:48;;;;;;;1.50;1.40;;;;;;;;;;5054117;28;20230;-84
2023/03/10 03:41:15;;;;;;;1.53;1.43;;;;;;;;;;5056181;28;20225;-94
2023/03/10 03:43:42;;;;;;;1.03;1.03;;;;;;;;;;5056072;28;20245;-93
2023/03/10 03:46:09;;;;;;;1.73;1.63;;;;;;;;;;5057026;28;20202;-94
2023/03/10 03:48:37;;;;;;;1.50;1.40;;;;;;;;;;5056392;28;20320;-95
2023/03/10 03:51:04;;;;;;;1.63;1.53;;;;;;;;;;5056990;28;20241;-94
2023/03/10 03:53:33;;;;;;;1.43;1.33;;;;;;;;;;5056574;28;20234;-93
2023/03/10 03:56:00;;;;;;;1.40;1.30;;;;;;;;;;5056991;28;20209;-94
2023/03/10 03:58:27;;;;;;;1.40;1.40;;;;;;;;;;5056294;28;20261;-95
2023/03/10 04:00:54;;;;;;;1.57;1.40;;;;;;;;;;5057191;28;20225;-94
2023/03/10 04:03:21;;;;;;;1.40;1.40;;;;;;;;;;5056416;28;20241;-94
2023/03/10 04:05:48;;;;;;;1.57;1.47;;;;;;;;;;5057195;28;20206;-94
2023/03/10 04:08:15;;;;;;;1.43;1.40;;;;;;;;;;5057057;28;20230;-94
2023/03/10 04:10:50;;;;;;;2.83;1.60;;;;;;;;;;5056497;28;20230;-93
2023/03/10 04:13:17;;;;;;;1.70;1.60;;;;;;;;;;5056314;28;20236;-94
2023/03/10 04:15:44;;;;;;;1.90;1.67;;;;;;;;;;5057111;28;20206;-94
2023/03/10 04:18:11;;;;;;;1.57;1.47;;;;;;;;;;5056401;28;20241;-93
2023/03/10 04:20:38;;;;;;;1.87;1.77;;;;;;;;;;5056136;28;20229;-93
2023/03/10 04:23:05;;;;;;;2.07;1.97;;;;;;;;;;5055915;28;20230;-93
2023/03/10 04:25:32;;;;;;;2.27;1.50;;;;;;;;;;5056140;28;20209;-93
2023/03/10 04:28:01;;;;;;;2.23;2.13;;;;;;;;;;5056225;28;20234;-93
2023/03/10 04:30:28;;;;;;;1.47;1.40;;;;;;;;;;5056710;28;20226;-94
2023/03/10 04:32:57;;;;;;;2.03;1.93;;;;;;;;;;5055516;28;20744;-94
2023/03/10 04:35:24;;;;;;;1.80;1.70;;;;;;;;;;5055884;28;20667;-94
2023/03/10 04:37:51;;;;;;;1.93;1.60;;;;;;;;;;5055433;28;20232;-94
2023/03/10 04:40:19;;;;;;;2.20;1.70;;;;;;;;;;5056422;28;20230;-94
2023/03/10 04:42:46;;;;;;;2.57;1.60;;;;;;;;;;5056977;28;20244;-94
2023/03/10 04:45:14;;;;;;;1.57;1.47;;;;;;;;;;5055513;28;20214;-94
2023/03/10 04:47:41;;;;;;;1.73;1.40;;;;;;;;;;5055837;28;20229;-94
2023/03/10 04:50:10;;;;;;;2.00;1.57;;;;;;;;;;5056123;28;20226;-94
2023/03/10 04:52:38;;;;;;;3.90;1.70;;;;;;;;;;5060321;28;20226;-94
2023/03/10 04:55:05;;;;;;;2.00;1.70;;;;;;;;;;5056103;28;20222;-94
2023/03/10 04:57:33;;;;;;;1.77;1.47;;;;;;;;;;5055498;28;20233;-94
2023/03/10 05:00:00;;;;;;;2.30;1.70;;;;;;;;;;5056681;28;20317;-93
2023/03/10 05:02:28;;;;;;;2.90;1.80;;;;;;;;;;5054879;28;20245;-93
2023/03/10 05:04:55;;;;;;;3.87;1.63;;;;;;;;;;5054669;28;20210;-93
2023/03/10 05:07:32;;;;;;;3.57;2.17;;;;;;;;;;5053936;28;20283;-93
2023/03/10 05:09:59;;;;;;;5.73;1.70;;;;;;;;;;5054913;28;20236;-93
2023/03/10 05:12:27;;;;;;;1.90;1.50;;;;;;;;;;5054379;28;20229;-91
2023/03/10 05:14:54;;;;;;;3.83;1.60;;;;;;;;;;5054555;28;20217;-93
2023/03/10 05:17:21;;;;;;;2.50;1.53;;;;;;;;;;5054037;28;20234;-93
2023/03/10 05:19:49;;;;;;;2.50;1.93;;;;;;;;;;5054697;28;20236;-93
2023/03/10 05:22:17;;;;;;;2.57;1.60;;;;;;;;;;5053750;28;20218;-92
2023/03/10 05:24:44;;;;;;;2.40;1.87;;;;;;;;;;5054117;28;20701;-92
2023/03/10 05:27:11;;;;;;;2.00;1.90;;;;;;;;;;5054485;28;20209;-92
2023/03/10 05:29:39;;;;;;;1.50;1.40;;;;;;;;;;5059671;28;20222;-92
2023/03/10 05:32:06;;;;;;;2.03;1.90;;;;;;;;;;5060431;28;20210;-92
2023/03/10 05:34:34;;;;;;;1.50;1.40;;;;;;;;;;5056424;28;20198;-92
2023/03/10 05:37:10;;;;;;;2.63;1.63;;;;;;;;;;5054121;28;20194;-91
2023/03/10 05:39:37;;;;;;;1.83;1.70;;;;;;;;;;5071970;28;20232;-92
2023/03/10 05:42:04;;;;;;;5.73;1.80;;;;;;;;;;5073387;28;20205;-92
2023/03/10 05:44:31;;;;;;;2.63;1.70;;;;;;;;;;5073612;28;20221;-90
2023/03/10 05:46:58;;;;;;;2.20;1.97;;;;;;;;;;5074166;28;20208;-92
2023/03/10 05:49:26;;;;;;;4.77;2.13;;;;;;;;;;5073769;28;20220;-93
2023/03/10 05:51:53;;;;;;;1.83;1.50;;;;;;;;;;5073908;28;20279;-93
2023/03/10 05:54:21;;;;;;;2.87;1.40;;;;;;;;;;5073369;28;20256;-93
2023/03/10 05:56:48;;;;;;;4.90;2.13;;;;;;;;;;5073651;28;20201;-92
2023/03/10 05:59:22;;;;;;;5.90;1.70;;;;;;;;;;5072823;28;20256;-93
2023/03/10 06:01:49;;;;;;;3.13;1.80;;;;;;;;;;5073793;28;20182;-93
2023/03/10 06:04:16;;;;;;;2.23;1.30;;;;;;;;;;5072943;28;20237;-92
2023/03/10 06:06:43;;;;;;;3.80;1.70;;;;;;;;;;5073434;28;20212;-92
2023/03/10 06:09:10;;;;;;;3.23;1.67;;;;;;;;;;5075106;28;20243;-93
2023/03/10 06:11:39;;;;;;;2.03;1.70;;;;;;;;;;5055902;28;20213;-93
2023/03/10 06:14:06;;;;;;;4.60;1.70;;;;;;;;;;5052127;28;20600;-93
2023/03/10 06:16:36;;;;;;;4.07;1.90;;;;;;;;;;5053535;28;20573;-93
2023/03/10 06:19:03;;;;;;;4.23;1.77;;;;;;;;;;5053169;28;20241;-90
2023/03/10 06:21:30;;;;;;;3.37;1.70;;;;;;;;;;5052646;28;20230;-90
2023/03/10 06:23:59;;;;;;;3.13;1.70;;;;;;;;;;5052734;28;20260;-92
2023/03/10 06:26:26;;;;;;;3.40;2.00;;;;;;;;;;5053469;28;20210;-92
2023/03/10 06:28:54;;;;;;;1.93;1.57;;;;;;;;;;5053167;28;20608;-92
2023/03/10 06:31:23;;;;;;;3.00;1.70;;;;;;;;;;5052818;28;20230;-92
2023/03/10 06:33:50;;;;;;;3.20;1.93;;;;;;;;;;5052703;28;20230;-92
2023/03/10 06:36:17;;;;;;;4.70;2.20;;;;;;;;;;5053056;28;20209;-92
2023/03/10 06:38:45;;;;;;;1.83;1.60;;;;;;;;;;5052361;28;20233;-91
2023/03/10 06:41:12;;;;;;;2.83;2.20;;;;;;;;;;5052884;28;20217;-92
2023/03/10 06:43:39;;;;;;;3.40;1.97;;;;;;;;;;5052432;28;20241;-92
2023/03/10 06:46:09;;;;;;;4.07;1.90;;;;;;;;;;5057155;28;20217;-92
2023/03/10 06:48:36;;;;;;;3.43;1.83;;;;;;;;;;5059284;28;20322;-93
2023/03/10 06:51:06;;;;;;;1.80;1.60;;;;;;;;;;5059154;28;20229;-93
2023/03/10 06:53:33;;;;;;;5.07;1.50;;;;;;;;;;5060154;28;20249;-93
2023/03/10 06:56:09;;;;;;;2.50;1.50;;;;;;;;;;5059644;28;20198;-94
2023/03/10 06:58:37;;;;;;;5.50;2.30;;;;;;;;;;5059264;28;20232;-94
2023/03/10 07:01:08;;;;;;;4.70;1.90;;;;;;;;;;5060902;28;20221;-93
2023/03/10 07:03:36;;;;;;;2.73;2.07;;;;;;;;;;5059989;28;20237;-93
2023/03/10 07:06:03;;;;;;;2.37;1.90;;;;;;;;;;5060591;28;20210;-93
2023/03/10 07:08:31;;;;;;;4.37;1.73;;;;;;;;;;5060179;28;20262;-93
2023/03/10 07:11:02;;;;;;;5.43;2.03;;;;;;;;;;5059624;28;20603;-90
2023/03/10 07:13:51;;;;;;;2.33;1.70;;;;;;;;;;5057572;28;20225;-92
2023/03/10 07:16:19;;;;;;;2.93;1.50;;;;;;;;;;5060712;28;20206;-92
2023/03/10 07:18:46;;;;;;;3.40;1.50;;;;;;;;;;5059557;28;20237;-93
2023/03/10 07:21:20;;;;;;;2.70;2.00;;;;;;;;;;5059790;28;20226;-94
2023/03/10 07:23:47;;;;;;;5.00;2.20;;;;;;;;;;5059599;28;20230;-93
2023/03/10 07:26:15;;;;;;;3.93;1.70;;;;;;;;;;5058685;28;20685;-90
2023/03/10 07:28:42;;;;;;;3.93;1.90;;;;;;;;;;5057204;28;20237;-90
2023/03/10 07:31:16;;;;;;;2.83;1.70;;;;;;;;;;5061073;28;20214;-91
2023/03/10 07:34:06;;;;;;;4.23;2.00;;;;;;;;;;5060605;28;20258;-92
2023/03/10 07:36:53;;;;;;;4.00;2.37;;;;;;;;;;5058639;28;20191;-91
2023/03/10 07:39:37;;;;;;;2.93;1.97;;;;;;;;;;5057190;28;20230;-92
2023/03/10 07:42:05;;;;;;;2.33;1.90;;;;;;;;;;5057132;28;20202;-91
2023/03/10 07:44:32;;;;;;;3.40;1.83;;;;;;;;;;5058151;28;20241;-92
2023/03/10 07:46:59;;;;;;;1.70;1.53;;;;;;;;;;5057987;28;20305;-92
2023/03/10 07:49:37;;;;;;;1.97;1.83;;;;;;;;;;5057509;28;20222;-92
2023/03/10 07:52:06;;;;;;;5.53;2.20;;;;;;;;;;5057996;28;20546;-91
2023/03/10 07:54:34;;;;;;;5.07;2.30;;;;;;;;;;5055135;28;20272;-92
2023/03/10 07:57:08;;;;;;;2.73;2.17;;;;;;;;;;5054865;28;20221;-92
2023/03/10 07:59:40;;;;;;;2.10;1.60;;;;;;;;;;5057518;28;20709;-91
2023/03/10 08:02:07;;;;;;;4.67;2.20;;;;;;;;;;5035841;28;20571;-91
2023/03/10 08:05:01;;;;;;;3.93;1.70;;;;;;;;;;5036458;28;20238;-92
2023/03/10 08:07:33;;;;;;;2.73;1.70;;;;;;;;;;5045732;28;20320;-92
2023/03/10 08:10:00;;;;;;;3.60;2.20;;;;;;;;;;5056110;28;20321;-92
2023/03/10 08:12:30;;;;;;;3.17;1.77;;;;;;;;;;5056213;28;20237;-92
2023/03/10 08:15:12;;;;;;;1.90;1.60;;;;;;;;;;5057234;28;20210;-92
2023/03/10 08:17:43;;;;;;;3.33;2.00;;;;;;;;;;5055282;28;20295;-91
2023/03/10 08:20:17;;;;;;;2.67;1.77;;;;;;;;;;5056473;28;20233;-91
2023/03/10 08:22:54;;;;;;;3.40;1.87;;;;;;;;;;5054232;28;20238;-91
2023/03/10 08:25:38;;;;;;;2.73;2.00;;;;;;;;;;5055007;28;20206;-91
2023/03/10 08:28:13;;;;;;;2.73;2.07;;;;;;;;;;5055386;28;20748;-92
2023/03/10 08:30:41;;;;;;;2.07;1.73;;;;;;;;;;5055344;28;20213;-91
2023/03/10 08:33:08;;;;;;;3.30;1.90;;;;;;;;;;5057797;28;20236;-91
2023/03/10 08:35:36;;;;;;;3.90;1.80;;;;;;;;;;5057290;28;20284;-92
2023/03/10 08:38:05;;;;;;;3.93;1.50;;;;;;;;;;5057865;28;20234;-90
2023/03/10 08:40:32;;;;;;;1.67;1.57;;;;;;;;;;5055881;28;20226;-90
2023/03/10 08:43:18;;;;;;;2.07;1.97;;;;;;;;;;5055153;28;20229;-91
2023/03/10 08:45:45;;;;;;;3.93;1.97;;;;;;;;;;5055209;28;20240;-91
2023/03/10 08:48:12;;;;;;;3.67;1.90;;;;;;;;;;5055646;28;20230;-91
2023/03/10 08:50:39;;;;;;;2.60;1.97;;;;;;;;;;5058431;28;20243;-92
2023/03/10 08:53:08;;;;;;;2.30;2.00;;;;;;;;;;5075391;28;20233;-92
2023/03/10 08:55:35;;;;;;;4.47;1.57;;;;;;;;;;5075296;28;20546;-90
2023/03/10 08:58:04;;;;;;;1.87;1.77;;;;;;;;;;5054200;28;20228;-90
2023/03/10 09:00:31;;;;;;;1.67;1.57;;;;;;;;;;5054957;28;20728;-91
2023/03/10 09:02:58;;;;;;;2.57;2.00;;;;;;;;;;5054892;28;20230;-91
2023/03/10 09:05:26;;;;;;;2.40;1.80;;;;;;;;;;5055558;28;20226;-91
2023/03/10 09:07:53;;;;;;;1.43;1.33;;;;;;;;;;5054142;28;20236;-91
2023/03/10 09:10:22;;;;;;;1.60;1.50;;;;;;;;;;5054866;28;20240;-92
2023/03/10 09:12:55;;;;;;;1.90;1.43;;;;;;;;;;5054422;28;20230;-90
2023/03/10 09:15:22;;;;;;;2.40;1.53;;;;;;;;;;5054745;28;20201;-91
2023/03/10 09:17:49;;;;;;;3.23;1.60;;;;;;;;;;5054051;28;20236;-91
2023/03/10 09:20:19;;;;;;;2.00;1.53;;;;;;;;;;5060143;28;20225;-90
2023/03/10 09:22:47;;;;;;;2.47;2.00;;;;;;;;;;5062273;28;20226;-91
2023/03/10 09:25:14;;;;;;;4.93;2.07;;;;;;;;;;5055232;28;20222;-91
2023/03/10 09:27:42;;;;;;;2.60;1.67;;;;;;;;;;5054251;28;20241;-90
2023/03/10 09:30:10;;;;;;;3.43;1.90;;;;;;;;;;5055111;28;20230;-90
2023/03/10 09:32:37;;;;;;;2.40;1.43;;;;;;;;;;5056070;28;20233;-91
2023/03/10 09:35:05;;;;;;;5.37;1.90;;;;;;;;;;5056156;28;20233;-91
2023/03/10 09:37:32;;;;;;;1.87;1.60;;;;;;;;;;5054525;28;20452;-90
2023/03/10 09:39:59;;;;;;;3.80;2.17;;;;;;;;;;5055757;28;20225;-90
2023/03/10 09:42:32;;;;;;;1.10;1.10;;;;;;;;;;5054000;28;20251;-90
2023/03/10 09:45:11;;;;;;;1.37;1.27;;;;;;;;;;5055991;28;20222;-90
2023/03/10 09:47:44;;;;;;;2.50;1.50;;;;;;;;;;5056124;28;20860;-91
2023/03/10 09:50:19;;;;;;;2.37;1.43;;;;;;;;;;5056056;28;20261;-90
2023/03/10 09:52:56;;;;;;;2.17;1.30;;;;;;;;;;5054739;28;20225;-90
2023/03/10 09:55:28;;;;;;;3.77;2.23;;;;;;;;;;5055668;28;20202;-90
2023/03/10 09:57:56;;;;;;;4.23;1.53;;;;;;;;;;5055054;28;20237;-90
2023/03/10 10:00:25;;;;;;;3.73;2.03;;;;;;;;;;5055803;28;20320;-90
2023/03/10 10:02:58;;;;;;;1.50;1.40;;;;;;;;;;5071248;28;20713;-89
2023/03/10 10:05:32;;;;;;;2.10;1.63;;;;;;;;;;5075846;28;20232;-91
2023/03/10 10:08:01;;;;;;;1.93;1.73;;;;;;;;;;5071510;28;20271;-90
2023/03/10 10:10:29;;;;;;;2.90;2.13;;;;;;;;;;5085431;22;20224;-87
2023/03/10 10:12:58;;;;;;;3.43;1.50;;;;;;;;;;5101671;28;20308;-86
2023/03/10 10:15:30;;;;;;;2.97;1.70;;;;;;;;;;5111966;28;20204;-86
2023/03/10 10:18:04;;;;;;;1.73;1.63;;;;;;;;;;5096236;28;20278;-87
2023/03/10 10:20:33;;;;;;;4.77;1.87;;;;;;;;;;5094220;28;20248;-87
2023/03/10 10:23:00;;;;;;;4.20;1.90;;;;;;;;;;5095168;28;20235;-87
2023/03/10 10:25:31;;;;;;;3.37;1.50;;;;;;;;;;5095727;28;20236;-86
2023/03/10 10:27:59;;;;;;;2.77;1.47;;;;;;;;;;5095133;28;20244;-87
2023/03/10 10:30:28;;;;;;;1.50;1.40;;;;;;;;;;5095800;28;20204;-86
2023/03/10 10:32:56;;;;;;;3.07;1.57;;;;;;;;;;5089581;28;20233;-87
2023/03/10 10:35:24;;;;;;;3.07;1.37;;;;;;;;;;5075206;28;20205;-87
2023/03/10 10:37:59;;;;;;;2.57;1.70;;;;;;;;;;5074748;28;20306;-86
2023/03/10 10:40:27;;;;;;;2.37;1.37;;;;;;;;;;5075215;28;20198;-86
2023/03/10 10:42:55;;;;;;;2.93;1.70;;;;;;;;;;5080384;28;20224;-86
2023/03/10 10:45:27;;;;;;;2.13;1.93;;;;;;;;;;5096002;28;20247;-86
2023/03/10 10:47:56;;;;;;;1.33;1.23;;;;;;;;;;5095730;28;20238;-86
2023/03/10 10:50:24;;;;;;;2.00;1.57;;;;;;;;;;5096511;28;20246;-85
2023/03/10 10:52:52;;;;;;;2.90;2.50;;;;;;;;;;5095226;28;20235;-86
2023/03/10 10:55:27;;;;;;;3.23;2.13;;;;;;;;;;5095273;28;20205;-86
2023/03/10 10:57:56;;;;;;;3.53;2.70;;;;;;;;;;5094544;28;20227;-86
2023/03/10 11:00:25;;;;;;;6.03;3.00;;;;;;;;;;5094842;28;20228;-86
2023/03/10 11:02:53;;;;;;;3.37;2.57;;;;;;;;;;5094252;28;20596;-87
2023/03/10 11:05:22;;;;;;;3.70;2.37;;;;;;;;;;5094925;28;20225;-86
2023/03/10 11:07:51;;;;;;;1.40;1.30;;;;;;;;;;5094051;28;20269;-85
2023/03/10 11:10:18;;;;;;;3.90;1.80;;;;;;;;;;5094379;28;20215;-86
2023/03/10 11:12:58;;;;;;;5.27;1.90;;;;;;;;;;5094250;28;20251;-86
2023/03/10 11:15:29;;;;;;;2.67;1.90;;;;;;;;;;5094793;28;20185;-86
2023/03/10 11:17:59;;;;;;;1.57;1.47;;;;;;;;;;5094105;28;20274;-85
2023/03/10 11:20:31;;;;;;;2.00;1.47;;;;;;;;;;5094289;28;20266;-86
2023/03/10 11:23:04;;;;;;;2.20;1.57;;;;;;;;;;5093802;28;20734;-85
2023/03/10 11:25:35;;;;;;;1.40;1.40;;;;;;;;;;5094338;28;20224;-86
2023/03/10 11:28:10;;;;;;;2.53;1.70;;;;;;;;;;5093933;28;20228;-86
2023/03/10 11:30:38;;;;;;;3.77;1.57;;;;;;;;;;5093262;28;20231;-86
2023/03/10 11:33:09;;;;;;;2.60;1.70;;;;;;;;;;5093306;28;20229;-86
2023/03/10 11:35:42;;;;;;;2.97;1.50;;;;;;;;;;5094606;28;20182;-86
2023/03/10 11:38:17;;;;;;;1.63;1.50;;;;;;;;;;5093765;28;20229;-85
2023/03/10 11:40:47;;;;;;;5.13;2.10;;;;;;;;;;5094321;28;20240;-85
2023/03/10 11:43:17;;;;;;;3.23;1.60;;;;;;;;;;5093746;28;20238;-85
2023/03/10 11:45:47;;;;;;;1.37;1.30;;;;;;;;;;5094730;28;20208;-85
2023/03/10 11:48:24;;;;;;;4.20;2.10;;;;;;;;;;5093860;28;20593;-85
2023/03/10 11:50:53;;;;;;;1.20;1.20;;;;;;;;;;5094131;28;20228;-85
2023/03/10 11:53:26;;;;;;;1.80;1.43;;;;;;;;;;5094253;28;20236;-85
2023/03/10 11:55:54;;;;;;;3.50;1.90;;;;;;;;;;5095841;28;20185;-85
2023/03/10 11:58:24;;;;;;;2.33;1.57;;;;;;;;;;5094854;28;20236;-84
2023/03/10 12:00:52;;;;;;;1.30;1.30;;;;;;;;;;5095820;28;20606;-85
2023/03/10 12:03:22;;;;;;;1.93;1.67;;;;;;;;;;5094976;28;20240;-85
2023/03/10 12:05:51;;;;;;;3.03;1.33;;;;;;;;;;5095443;28;20224;-85
2023/03/10 12:08:21;;;;;;;1.57;1.47;;;;;;;;;;5094905;28;20238;-84
2023/03/10 12:10:49;;;;;;;1.40;1.30;;;;;;;;;;5093536;28;20239;-85
2023/03/10 12:13:23;;;;;;;1.60;1.50;;;;;;;;;;5093437;28;20232;-85
2023/03/10 12:15:50;;;;;;;1.17;1.17;;;;;;;;;;5100073;28;20238;-85
2023/03/10 12:18:18;;;;;;;2.33;1.50;;;;;;;;;;5098342;28;20235;-85
2023/03/10 12:20:45;;;;;;;1.90;1.57;;;;;;;;;;5099736;28;20647;-84
2023/03/10 12:23:39;;;;;;;1.80;1.53;;;;;;;;;;5098940;28;20238;-86
2023/03/10 12:26:07;;;;;;;4.47;1.43;;;;;;;;;;5099559;28;20227;-84
2023/03/10 12:28:34;;;;;;;3.13;1.27;;;;;;;;;;5098704;28;20244;-87
2023/03/10 12:31:02;;;;;;;2.90;1.40;;;;;;;;;;5098054;28;20224;-85
2023/03/10 12:33:40;;;;;;;2.63;1.57;;;;;;;;;;5093106;28;20235;-86
2023/03/10 12:36:09;;;;;;;2.30;1.60;;;;;;;;;;5093745;28;20193;-85
2023/03/10 12:38:40;;;;;;;1.53;1.43;;;;;;;;;;5093410;28;20228;-85
2023/03/10 12:41:07;;;;;;;1.60;1.50;;;;;;;;;;5092946;28;20227;-85
2023/03/10 12:43:44;;;;;;;1.20;1.10;;;;;;;;;;5091593;28;20243;-86
2023/03/10 12:46:12;;;;;;;1.03;1.00;;;;;;;;;;5093202;28;20216;-86
2023/03/10 12:48:41;;;;;;;1.83;1.40;;;;;;;;;;5092228;28;20244;-85
2023/03/10 12:51:12;;;;;;;1.60;1.50;;;;;;;;;;5092618;28;20220;-86
2023/03/10 12:53:46;;;;;;;2.03;1.20;;;;;;;;;;5092001;28;20255;-85
2023/03/10 12:56:21;;;;;;;1.57;1.47;;;;;;;;;;5093128;28;20188;-86
2023/03/10 12:58:51;;;;;;;1.03;0.93;;;;;;;;;;5092329;28;20231;-86
2023/03/10 13:01:21;;;;;;;1.50;1.43;;;;;;;;;;5092603;28;20217;-86
2023/03/10 13:03:49;;;;;;;2.10;1.47;;;;;;;;;;5092023;28;20228;-86
2023/03/10 13:06:21;;;;;;;1.33;1.10;;;;;;;;;;5095973;28;20229;-86
2023/03/10 13:08:51;;;;;;;1.40;1.30;;;;;;;;;;5096326;28;20228;-87
2023/03/10 13:11:24;;;;;;;1.50;1.40;;;;;;;;;;5095613;28;20232;-86
2023/03/10 13:13:52;;;;;;;3.30;1.17;;;;;;;;;;5092856;28;20719;-86
2023/03/10 13:16:20;;;;;;;1.40;1.30;;;;;;;;;;5093732;28;20201;-86
2023/03/10 13:18:48;;;;;;;1.20;1.20;;;;;;;;;;5092873;28;20232;-86
2023/03/10 13:21:23;;;;;;;2.10;1.20;;;;;;;;;;5092879;28;20239;-87
2023/03/10 13:23:52;;;;;;;1.47;1.37;;;;;;;;;;5091995;28;20301;-86
2023/03/10 13:26:20;;;;;;;1.60;1.50;;;;;;;;;;5092737;28;20227;-86
2023/03/10 13:28:51;;;;;;;3.37;1.63;;;;;;;;;;5092061;28;20281;-86
2023/03/10 13:31:20;;;;;;;1.30;1.20;;;;;;;;;;5093367;28;20589;-85
2023/03/10 13:33:48;;;;;;;1.40;1.40;;;;;;;;;;5092361;28;20240;-86
2023/03/10 13:36:22;;;;;;;1.67;1.57;;;;;;;;;;5093473;28;20231;-85
2023/03/10 13:38:51;;;;;;;2.03;1.83;;;;;;;;;;5092512;28;20250;-87
2023/03/10 13:41:20;;;;;;;2.00;1.90;;;;;;;;;;5093991;28;20232;-86
2023/03/10 13:43:48;;;;;;;2.40;2.20;;;;;;;;;;5092870;28;20610;-88
2023/03/10 13:46:16;;;;;;;2.40;1.57;;;;;;;;;;5093576;28;20735;-88
2023/03/10 13:48:43;;;;;;;4.97;1.70;;;;;;;;;;5093213;28;20235;-87
2023/03/10 13:51:17;;;;;;;2.37;1.90;;;;;;;;;;5093323;28;20316;-87
2023/03/10 13:53:44;;;;;;;2.47;2.00;;;;;;;;;;5092448;28;20264;-87
2023/03/10 13:56:19;;;;;;;1.77;1.50;;;;;;;;;;5095616;28;20232;-87
2023/03/10 13:58:48;;;;;;;3.80;2.10;;;;;;;;;;5092442;28;20228;-88
2023/03/10 14:01:23;;;;;;;1.50;1.40;;;;;;;;;;5093402;28;20232;-88
2023/03/10 14:03:52;;;;;;;5.53;2.07;;;;;;;;;;5093333;28;20239;-87
2023/03/10 14:06:19;;;;;;;1.93;1.83;;;;;;;;;;5092227;28;20224;-85
2023/03/10 14:08:46;;;;;;;4.37;1.97;;;;;;;;;;5092403;28;20224;-84
2023/03/10 14:11:37;;;;;;;3.03;2.17;;;;;;;;;;5092606;28;20229;-86
2023/03/10 14:14:06;;;;;;;2.17;1.60;;;;;;;;;;5080548;28;20247;-86
2023/03/10 14:16:47;;;;;;;2.00;1.90;;;;;;;;;;5101928;28;20670;-87
2023/03/10 14:19:14;;;;;;;1.83;1.60;;;;;;;;;;5105149;28;20239;-87
2023/03/10 14:21:41;;;;;;;2.33;2.10;;;;;;;;;;5107859;28;20242;-87
2023/03/10 14:24:13;;;;;;;1.60;1.50;;;;;;;;;;5101967;28;20232;-87
2023/03/10 14:26:41;;;;;;;1.30;1.30;;;;;;;;;;5077105;28;20291;-87
2023/03/10 14:29:14;;;;;;;2.43;1.50;;;;;;;;;;5075513;28;20286;-87
2023/03/10 14:31:41;;;;;;;1.70;1.60;;;;;;;;;;5075007;28;20221;-87
2023/03/10 14:34:11;;;;;;;1.63;1.53;;;;;;;;;;5074612;28;20249;-87
2023/03/10 14:36:38;;;;;;;1.57;1.47;;;;;;;;;;5092543;28;20211;-88
2023/03/10 14:39:05;;;;;;;1.20;1.10;;;;;;;;;;5093929;28;20267;-87
2023/03/10 14:41:32;;;;;;;1.20;1.20;;;;;;;;;;5094386;28;20237;-86
2023/03/10 14:44:00;;;;;;;1.00;1.00;;;;;;;;;;5093135;28;20225;-87
2023/03/10 14:46:31;;;;;;;1.40;1.40;;;;;;;;;;5093103;28;20213;-87
2023/03/10 14:48:58;;;;;;;1.10;1.10;;;;;;;;;;5092509;28;20708;-87
2023/03/10 14:51:25;;;;;;;1.20;1.20;;;;;;;;;;5093014;28;20228;-87
2023/03/10 14:53:52;;;;;;;1.20;1.13;;;;;;;;;;5093616;28;20232;-89
2023/03/10 14:56:21;;;;;;;1.93;1.00;;;;;;;;;;5092368;28;20200;-89